TimeMST,TemperatureF,Dew PointF,Humidity,Sea Level PressureIn,VisibilityMPH,Wind Direction,Wind SpeedMPH,Gust SpeedMPH,PrecipitationIn,Events,Conditions,WindDirDegrees,DateUTC
12:55 AM,59.0,41.0,51,30.12,10.0,Calm,Calm,-,N/A,,Clear,0,2012-11-20 07:55:00
1:55 AM,55.9,39.9,55,30.11,10.0,Calm,Calm,-,N/A,,Clear,0,2012-11-20 08:55:00
2:55 AM,55.9,39.9,55,30.10,10.0,NNE,3.5,-,N/A,,Clear,30,2012-11-20 09:55:00
3:55 AM,55.0,39.9,57,30.09,10.0,Calm,Calm,-,N/A,,Clear,0,2012-11-20 10:55:00
4:55 AM,54.0,39.9,59,30.09,10.0,Calm,Calm,-,N/A,,Clear,0,2012-11-20 11:55:00
5:55 AM,52.0,41.0,66,30.09,10.0,WSW,3.5,-,N/A,,Clear,240,2012-11-20 12:55:00
6:55 AM,53.1,41.0,64,30.11,10.0,Calm,Calm,-,N/A,,Clear,0,2012-11-20 13:55:00
7:55 AM,55.0,41.0,59,30.12,10.0,Calm,Calm,-,N/A,,Partly Cloudy,0,2012-11-20 14:55:00
8:55 AM,62.1,39.9,44,30.12,7.0,NNE,4.6,-,N/A,,Partly Cloudy,30,2012-11-20 15:55:00
9:55 AM,66.9,39.0,36,30.12,10.0,NNE,4.6,-,N/A,,Partly Cloudy,30,2012-11-20 16:55:00
10:55 AM,73.0,39.9,30,30.11,10.0,NNE,4.6,-,N/A,,Partly Cloudy,20,2012-11-20 17:55:00
11:55 AM,77.0,37.0,24,30.08,10.0,NNE,5.8,-,N/A,,Partly Cloudy,20,2012-11-20 18:55:00
12:55 PM,79.0,36.0,21,30.04,10.0,Variable,5.8,-,N/A,,Partly Cloudy,0,2012-11-20 19:55:00
1:55 PM,81.0,35.1,19,30.01,10.0,North,5.8,-,N/A,,Partly Cloudy,350,2012-11-20 20:55:00
2:55 PM,82.0,35.1,18,29.99,10.0,Calm,Calm,-,N/A,,Partly Cloudy,0,2012-11-20 21:55:00
3:55 PM,81.0,34.0,18,29.97,10.0,Calm,Calm,-,N/A,,Partly Cloudy,0,2012-11-20 22:55:00
4:55 PM,81.0,35.1,19,29.97,10.0,NNE,4.6,-,N/A,,Partly Cloudy,30,2012-11-20 23:55:00
5:55 PM,77.0,36.0,23,29.97,10.0,Calm,Calm,-,N/A,,Partly Cloudy,0,2012-11-21 00:55:00
6:55 PM,69.1,39.0,33,29.98,10.0,Calm,Calm,-,N/A,,Clear,0,2012-11-21 01:55:00
7:55 PM,66.0,39.9,38,29.99,10.0,West,4.6,-,N/A,,Clear,260,2012-11-21 02:55:00
8:55 PM,64.9,39.0,39,29.99,10.0,Calm,Calm,-,N/A,,Clear,0,2012-11-21 03:55:00
9:55 PM,63.0,39.9,43,30.00,10.0,Calm,Calm,-,N/A,,Clear,0,2012-11-21 04:55:00
10:55 PM,60.1,39.9,47,30.00,10.0,Calm,Calm,-,N/A,,Clear,0,2012-11-21 05:55:00
11:55 PM,57.0,41.0,55,29.99,10.0,Calm,Calm,-,N/A,,Clear,0,2012-11-21 06:55:00